createdAt,value
2019-01-23T00:01:00.159Z,26.07
2019-01-23T00:03:30.830Z,28.07
2019-01-23T00:06:02.967Z,28.07
2019-01-23T00:08:33.412Z,26.30
2019-01-23T00:11:04.149Z,27.97
2019-01-23T00:13:35.088Z,32.53
2019-01-23T00:16:08.979Z,27.90
2019-01-23T00:18:39.478Z,27.47
2019-01-23T00:21:10.348Z,27.23
2019-01-23T00:23:42.697Z,25.77
2019-01-23T00:26:15.596Z,27.57
2019-01-23T00:28:49.832Z,26.57
2019-01-23T00:31:20.626Z,26.93
2019-01-23T00:33:51.839Z,33.57
2019-01-23T00:36:22.239Z,27.00
2019-01-23T00:38:53.068Z,26.37
2019-01-23T00:41:23.422Z,26.47
2019-01-23T00:43:54.085Z,26.70
2019-01-23T00:46:25.251Z,27.93
2019-01-23T00:48:55.689Z,28.27
2019-01-23T00:51:26.132Z,28.77
2019-01-23T00:53:56.782Z,27.20
2019-01-23T00:56:27.232Z,27.33
2019-01-23T00:58:57.568Z,27.10
2019-01-23T01:01:28.143Z,27.33
2019-01-23T01:03:58.525Z,33.57
2019-01-23T01:06:46.288Z,25.67
2019-01-23T01:12:30.551Z,33.30
2019-01-23T01:15:03.498Z,26.87
2019-01-23T01:18:06.883Z,27.40
2019-01-23T01:20:55.487Z,33.43
2019-01-23T01:23:25.896Z,28.10
2019-01-23T01:26:14.002Z,25.93
2019-01-23T01:28:56.277Z,33.50
2019-01-23T01:31:26.804Z,25.90
2019-01-23T01:34:21.408Z,26.73
2019-01-23T01:36:51.950Z,27.83
2019-01-23T01:39:22.411Z,31.77
2019-01-23T01:42:06.573Z,26.13
2019-01-23T01:44:28.123Z,27.40
2019-01-23T01:47:10.143Z,26.93
2019-01-23T01:49:40.262Z,26.37
2019-01-23T01:52:10.836Z,33.40
2019-01-23T01:54:41.346Z,26.93
2019-01-23T01:57:12.120Z,31.73
2019-01-23T01:59:45.654Z,26.90
2019-01-23T02:02:16.143Z,27.60
2019-01-23T02:04:48.738Z,26.00
2019-01-23T02:07:19.159Z,27.37
2019-01-23T02:09:49.797Z,26.63
2019-01-23T02:12:20.280Z,26.93
2019-01-23T02:14:50.962Z,34.93
2019-01-23T02:17:21.326Z,25.70
2019-01-23T02:19:51.786Z,26.57
2019-01-23T02:22:22.239Z,27.33
2019-01-23T02:24:55.592Z,26.57
2019-01-23T02:27:26.076Z,32.20
2019-01-23T02:29:56.453Z,26.20
2019-01-23T02:32:26.821Z,27.23
2019-01-23T02:34:57.781Z,26.97
2019-01-23T02:37:31.150Z,26.60
2019-01-23T02:40:01.619Z,27.07
2019-01-23T02:42:32.585Z,27.20
2019-01-23T02:45:02.933Z,26.10
2019-01-23T02:47:33.640Z,25.23
2019-01-23T02:50:04.417Z,24.90
2019-01-23T02:52:34.823Z,27.40
2019-01-23T02:55:06.331Z,24.60
2019-01-23T02:57:36.971Z,24.90
2019-01-23T03:00:11.398Z,26.60
2019-01-23T03:02:42.271Z,25.87
2019-01-23T03:05:16.164Z,26.57
2019-01-23T03:07:46.599Z,26.20
2019-01-23T03:10:20.102Z,26.73
2019-01-23T03:12:52.432Z,25.17
2019-01-23T03:15:22.948Z,26.17
2019-01-23T03:17:53.788Z,26.83
2019-01-23T03:20:24.223Z,27.23
2019-01-23T03:22:54.792Z,27.37
2019-01-23T03:25:25.204Z,25.53
2019-01-23T03:27:56.104Z,26.67
2019-01-23T03:30:28.656Z,26.27
2019-01-23T03:32:59.626Z,26.03
2019-01-23T03:35:30.229Z,27.70
2019-01-23T03:38:00.597Z,24.47
2019-01-23T03:40:33.225Z,28.00
2019-01-23T03:43:03.678Z,27.77
2019-01-23T03:45:36.822Z,27.00
2019-01-23T03:48:09.577Z,26.40
2019-01-23T03:50:39.991Z,26.80
2019-01-23T03:53:10.412Z,27.00
2019-01-23T03:55:40.855Z,27.37
2019-01-23T03:58:11.376Z,26.93
2019-01-23T04:00:41.757Z,27.37
2019-01-23T04:03:12.142Z,27.30
2019-01-23T04:05:42.510Z,27.30
2019-01-23T04:08:12.933Z,27.83
2019-01-23T04:10:43.304Z,28.93
2019-01-23T04:13:13.789Z,29.70
2019-01-23T04:15:44.732Z,30.13
2019-01-23T04:18:15.498Z,29.23
2019-01-23T04:20:45.983Z,29.67
2019-01-23T04:23:16.421Z,28.77
2019-01-23T04:25:53.783Z,29.73
2019-01-23T04:28:21.079Z,26.97
2019-01-23T04:30:51.629Z,28.67
2019-01-23T04:33:22.048Z,26.63
2019-01-23T04:35:52.887Z,28.20
2019-01-23T04:38:25.742Z,27.63
2019-01-23T04:40:56.555Z,28.07
2019-01-23T04:43:29.902Z,28.57
2019-01-23T04:46:00.261Z,29.90
2019-01-23T04:48:30.799Z,29.80
2019-01-23T04:51:23.178Z,29.07
2019-01-23T04:56:52.654Z,30.43
2019-01-23T04:59:23.152Z,30.93
2019-01-23T05:01:53.548Z,31.90
2019-01-23T05:04:23.953Z,31.00
2019-01-23T05:06:54.405Z,30.90
2019-01-23T05:09:24.813Z,35.43
2019-01-23T05:11:55.447Z,45.07
2019-01-23T05:14:26.392Z,38.03
2019-01-23T05:16:56.679Z,51.20
2019-01-23T05:19:29.148Z,59.43
2019-01-23T05:22:00.251Z,38.50
2019-01-23T05:24:35.450Z,34.60
2019-01-23T05:27:06.095Z,34.47
2019-01-23T05:29:38.817Z,31.30
2019-01-23T05:32:09.249Z,31.50
2019-01-23T05:34:39.983Z,32.47
2019-01-23T05:37:10.771Z,32.87
2019-01-23T05:39:41.155Z,34.10
2019-01-23T05:42:12.059Z,33.23
2019-01-23T05:44:42.693Z,33.23
2019-01-23T05:47:13.155Z,31.70
2019-01-23T05:49:46.930Z,29.87
2019-01-23T05:52:17.453Z,31.57
2019-01-23T05:54:55.934Z,31.93
2019-01-23T05:57:28.640Z,32.80
2019-01-23T06:00:02.390Z,31.50
2019-01-23T06:02:34.056Z,33.00
2019-01-23T06:05:05.333Z,31.67
2019-01-23T06:07:36.292Z,32.13
2019-01-23T06:10:09.007Z,31.97
2019-01-23T06:12:41.310Z,33.33
2019-01-23T06:15:12.670Z,32.90
2019-01-23T06:17:45.340Z,32.53
2019-01-23T06:20:19.794Z,33.80
2019-01-23T06:22:52.075Z,33.17
2019-01-23T06:25:22.901Z,34.20
2019-01-23T06:27:55.225Z,32.90
2019-01-23T06:30:31.274Z,32.63
2019-01-23T06:33:01.832Z,33.63
2019-01-23T06:35:32.110Z,35.83
2019-01-23T06:38:02.498Z,34.63
2019-01-23T06:40:32.894Z,34.53
2019-01-23T06:43:03.606Z,35.13
2019-01-23T06:45:34.016Z,34.40
2019-01-23T06:48:04.590Z,36.00
2019-01-23T06:50:34.936Z,35.23
2019-01-23T06:53:06.729Z,35.63
2019-01-23T06:55:37.234Z,39.40
2019-01-23T06:58:07.600Z,37.63
2019-01-23T07:00:37.948Z,36.17
2019-01-23T07:03:11.425Z,38.37
2019-01-23T07:05:42.431Z,38.53
2019-01-23T07:08:12.835Z,36.37
2019-01-23T07:10:43.286Z,40.23
2019-01-23T07:13:13.690Z,41.03
2019-01-23T07:15:44.140Z,39.87
2019-01-23T07:18:14.523Z,43.47
2019-01-23T07:20:44.988Z,41.03
2019-01-23T07:23:16.008Z,43.90
2019-01-23T07:25:48.609Z,41.97
2019-01-23T07:28:18.841Z,43.07
2019-01-23T07:30:49.173Z,43.20
2019-01-23T07:33:21.757Z,42.87
2019-01-23T07:35:52.407Z,40.70
2019-01-23T07:38:23.166Z,42.37
2019-01-23T07:40:54.022Z,44.13
2019-01-23T07:43:24.723Z,42.47
2019-01-23T07:45:55.354Z,43.33
2019-01-23T07:48:37.490Z,43.90
2019-01-23T07:51:08.004Z,42.60
2019-01-23T07:53:38.453Z,44.23
2019-01-23T07:56:09.805Z,44.17
2019-01-23T07:58:42.385Z,42.50
2019-01-23T08:01:13.454Z,44.83
2019-01-23T08:03:44.150Z,42.97
2019-01-23T08:06:14.696Z,53.20
2019-01-23T08:08:51.307Z,43.90
2019-01-23T08:11:22.387Z,43.63
2019-01-23T08:13:53.309Z,42.67
2019-01-23T08:16:24.330Z,43.07
2019-01-23T08:18:57.255Z,43.27
2019-01-23T08:21:29.068Z,44.10
2019-01-23T08:24:03.297Z,42.70
2019-01-23T08:26:33.964Z,46.10
2019-01-23T08:29:04.452Z,44.17
2019-01-23T08:31:39.606Z,42.67
2019-01-23T08:34:10.197Z,43.17
2019-01-23T08:36:43.182Z,43.57
2019-01-23T08:39:20.677Z,43.87
2019-01-23T08:41:51.079Z,44.07
2019-01-23T08:44:23.743Z,44.47
2019-01-23T08:46:55.072Z,43.00
2019-01-23T08:49:25.695Z,45.10
2019-01-23T08:51:57.458Z,46.03
2019-01-23T08:54:28.136Z,43.70
2019-01-23T08:57:08.058Z,42.17
2019-01-23T08:59:42.033Z,44.80
2019-01-23T09:02:14.219Z,42.20
2019-01-23T09:04:57.066Z,43.50
2019-01-23T09:07:54.095Z,51.53
2019-01-23T09:10:26.054Z,44.80
2019-01-23T09:12:56.925Z,52.67
2019-01-23T09:15:28.880Z,41.93
2019-01-23T09:18:10.245Z,54.03
2019-01-23T09:20:46.550Z,46.93
2019-01-23T09:23:22.665Z,49.53
2019-01-23T09:26:25.757Z,42.63
2019-01-23T09:42:41.546Z,39.40
2019-01-23T09:46:18.628Z,42.07
2019-01-23T09:49:52.909Z,41.80
2019-01-23T09:53:00.324Z,40.67
2019-01-23T09:55:32.638Z,41.10
2019-01-23T09:58:42.920Z,40.30
2019-01-23T10:01:23.219Z,41.40
2019-01-23T10:03:54.259Z,40.30
2019-01-23T10:06:28.832Z,42.87
2019-01-23T10:09:35.587Z,41.57
2019-01-23T10:12:19.531Z,40.90
2019-01-23T10:15:41.932Z,39.83
2019-01-23T10:19:01.774Z,40.30
2019-01-23T10:21:56.876Z,40.03
2019-01-23T10:24:36.039Z,39.33
2019-01-23T10:27:07.737Z,40.60
2019-01-23T10:29:39.537Z,39.37
2019-01-23T10:32:11.149Z,39.63
2019-01-23T10:34:42.259Z,39.93
2019-01-23T10:37:24.790Z,40.30
2019-01-23T10:39:55.745Z,40.03
2019-01-23T10:42:26.917Z,39.57
2019-01-23T10:45:01.256Z,41.47
2019-01-23T10:47:34.792Z,40.13
2019-01-23T10:50:25.946Z,40.67
2019-01-23T10:52:55.191Z,41.60
2019-01-23T10:55:27.350Z,41.20
2019-01-23T10:58:02.704Z,39.43
2019-01-23T11:00:41.235Z,39.80
2019-01-23T11:03:26.515Z,40.97
2019-01-23T11:05:56.931Z,39.00
2019-01-23T11:08:27.737Z,39.83
2019-01-23T11:11:03.385Z,41.33
2019-01-23T11:13:33.917Z,42.10
2019-01-23T11:16:04.392Z,39.77
2019-01-23T11:18:37.193Z,41.73
2019-01-23T11:21:12.498Z,41.47
2019-01-23T11:23:49.736Z,38.20
2019-01-23T11:26:20.300Z,39.73
2019-01-23T11:29:02.377Z,38.50
2019-01-23T11:31:39.991Z,39.73
2019-01-23T11:34:14.336Z,37.37
2019-01-23T11:36:45.974Z,39.13
2019-01-23T11:39:16.840Z,38.47
2019-01-23T11:41:47.639Z,36.07
2019-01-23T11:44:30.943Z,33.63
2019-01-23T11:47:01.507Z,35.53
2019-01-23T11:49:32.172Z,37.53
2019-01-23T11:52:02.659Z,33.33
2019-01-23T11:54:33.508Z,35.87
2019-01-23T11:57:05.389Z,35.37
2019-01-23T11:59:36.177Z,33.77
2019-01-23T12:02:07.919Z,35.43
2019-01-23T12:04:38.301Z,35.47
2019-01-23T12:07:11.579Z,36.20
2019-01-23T12:09:42.917Z,36.27
2019-01-23T12:12:17.376Z,35.73
2019-01-23T12:14:53.739Z,38.83
2019-01-23T12:17:25.080Z,41.80
2019-01-23T12:19:55.580Z,41.97
2019-01-23T12:22:26.340Z,41.57
2019-01-23T12:24:57.955Z,43.17
2019-01-23T12:27:43.725Z,37.23
2019-01-23T12:30:37.575Z,41.77
2019-01-23T12:33:11.349Z,41.13
2019-01-23T12:35:46.186Z,40.50
2019-01-23T12:38:19.878Z,40.43
2019-01-23T12:40:54.140Z,42.40
2019-01-23T12:43:29.283Z,43.37
2019-01-23T12:46:01.713Z,42.97
2019-01-23T12:48:49.437Z,43.37
2019-01-23T12:51:20.194Z,43.53
2019-01-23T12:53:51.128Z,44.47
2019-01-23T12:56:25.462Z,42.83
2019-01-23T12:58:58.519Z,41.90
2019-01-23T13:01:30.620Z,42.47
2019-01-23T13:04:01.349Z,42.50
2019-01-23T13:06:43.138Z,43.83
2019-01-23T13:09:19.823Z,42.13
2019-01-23T13:12:00.509Z,43.90
2019-01-23T13:14:31.623Z,43.00
2019-01-23T13:17:05.161Z,46.17
2019-01-23T13:19:35.656Z,42.27
2019-01-23T13:22:09.060Z,46.67
2019-01-23T13:24:39.743Z,40.00
2019-01-23T13:27:11.793Z,46.30
2019-01-23T13:29:46.261Z,44.03
2019-01-23T13:32:47.567Z,42.67
2019-01-23T13:35:34.209Z,44.20
2019-01-23T13:38:17.609Z,46.40
2019-01-23T13:41:30.244Z,47.67
2019-01-23T13:44:12.665Z,47.93
2019-01-23T13:47:11.502Z,46.67
2019-01-23T13:50:18.333Z,47.50
2019-01-23T13:52:55.605Z,61.68
2019-01-23T13:55:40.781Z,52.83
2019-01-23T13:58:41.508Z,52.60
2019-01-23T14:01:06.991Z,51.03
2019-01-23T14:03:39.997Z,50.37
2019-01-23T14:06:11.067Z,50.17
2019-01-23T14:09:09.900Z,52.40
2019-01-23T14:11:54.104Z,48.60
2019-01-23T14:14:28.575Z,48.27
2019-01-23T14:17:51.215Z,50.37
2019-01-23T14:20:35.172Z,47.77
2019-01-23T14:23:31.096Z,47.60
2019-01-23T14:26:32.788Z,47.37
2019-01-23T14:29:10.228Z,46.70
2019-01-23T14:32:03.350Z,51.37
2019-01-23T14:34:26.688Z,49.83
2019-01-23T14:36:57.502Z,48.50
2019-01-23T14:39:31.448Z,49.20
2019-01-23T14:42:21.003Z,48.73
2019-01-23T14:45:20.302Z,50.57
2019-01-23T14:48:50.198Z,50.70
2019-01-23T14:52:40.955Z,51.83
2019-01-23T14:55:47.966Z,50.37
2019-01-23T14:58:16.344Z,52.90
2019-01-23T15:01:02.130Z,49.43
2019-01-23T15:04:49.350Z,51.97
2019-01-23T15:07:25.502Z,50.97
2019-01-23T15:10:10.550Z,51.60
2019-01-23T15:12:51.064Z,52.60
2019-01-23T15:15:26.813Z,53.53
2019-01-23T15:17:58.285Z,54.63
2019-01-23T15:20:40.194Z,55.07
2019-01-23T15:23:11.171Z,55.53
2019-01-23T15:25:42.101Z,55.50
2019-01-23T15:28:14.453Z,55.57
2019-01-23T15:30:45.137Z,62.00
2019-01-23T15:33:15.837Z,61.27
2019-01-23T15:35:48.964Z,63.23
2019-01-23T15:38:25.941Z,60.93
2019-01-23T15:41:36.063Z,63.00
2019-01-23T15:44:07.343Z,62.00
2019-01-23T15:46:41.409Z,60.53
2019-01-23T15:50:03.743Z,61.50
2019-01-23T15:52:50.735Z,62.33
2019-01-23T15:55:43.169Z,59.03
2019-01-23T15:58:17.642Z,61.10
2019-01-23T16:00:54.224Z,59.30
2019-01-23T16:03:39.739Z,60.93
2019-01-23T16:06:15.841Z,64.00
2019-01-23T16:08:46.170Z,61.00
2019-01-23T16:12:25.635Z,63.53
2019-01-23T16:15:08.763Z,67.20
2019-01-23T16:18:39.516Z,59.63
2019-01-23T16:21:45.732Z,58.43
2019-01-23T16:24:21.221Z,57.70
2019-01-23T16:27:13.305Z,60.37
2019-01-23T16:30:09.584Z,54.80
2019-01-23T16:33:45.752Z,57.13
2019-01-23T16:40:11.957Z,58.57
2019-01-23T16:43:24.931Z,58.53
2019-01-23T16:47:02.098Z,50.93
2019-01-23T16:49:39.943Z,51.53
2019-01-23T16:52:17.326Z,48.67
2019-01-23T16:54:58.261Z,50.97
2019-01-23T16:57:29.601Z,55.50
2019-01-23T17:00:01.938Z,47.50
2019-01-23T17:02:38.706Z,46.27
2019-01-23T17:05:15.514Z,48.97
2019-01-23T17:07:49.751Z,45.23
2019-01-23T17:10:22.924Z,47.37
2019-01-23T17:12:54.174Z,57.57
2019-01-23T17:15:27.752Z,46.47
2019-01-23T17:18:01.592Z,48.23
2019-01-23T17:21:02.661Z,46.33
2019-01-23T17:23:42.334Z,42.07
2019-01-23T17:26:19.660Z,39.00
2019-01-23T17:28:56.755Z,39.10
2019-01-23T17:31:37.232Z,47.57
2019-01-23T17:34:09.401Z,40.73
2019-01-23T17:36:43.142Z,39.50
2019-01-23T17:39:33.735Z,37.57
2019-01-23T17:42:12.391Z,46.20
2019-01-23T17:44:45.659Z,38.33
2019-01-23T17:47:16.495Z,38.93
2019-01-23T17:49:51.158Z,36.67
2019-01-23T17:55:38.319Z,34.87
2019-01-23T17:58:12.906Z,31.63
2019-01-23T18:01:03.505Z,34.63
2019-01-23T18:03:44.638Z,34.83
2019-01-23T18:06:24.569Z,36.57
2019-01-23T18:09:08.171Z,34.57
2019-01-23T18:11:41.095Z,34.37
2019-01-23T18:14:30.828Z,33.60
2019-01-23T18:17:15.564Z,32.93
2019-01-23T18:19:46.495Z,35.53
2019-01-23T18:22:19.335Z,31.43
2019-01-23T18:24:53.934Z,32.13
2019-01-23T18:27:28.142Z,31.50
2019-01-23T18:30:08.900Z,32.73
2019-01-23T18:32:40.963Z,32.20
2019-01-23T18:35:47.342Z,32.77
2019-01-23T18:39:06.399Z,28.90
2019-01-23T18:42:29.747Z,32.07
2019-01-23T18:45:37.659Z,32.90
2019-01-23T18:49:14.312Z,30.97
2019-01-23T18:52:04.112Z,29.20
2019-01-23T18:54:34.765Z,33.33
2019-01-23T18:57:05.634Z,34.20
2019-01-23T18:59:37.840Z,29.80
2019-01-23T19:03:07.186Z,35.23
2019-01-23T19:09:15.713Z,33.30
2019-01-23T19:11:46.500Z,33.33
2019-01-23T19:14:24.593Z,26.60
2019-01-23T19:16:55.607Z,32.50
2019-01-23T19:19:33.984Z,31.50
2019-01-23T19:22:05.864Z,34.07
2019-01-23T19:24:51.137Z,31.00
2019-01-23T19:27:28.752Z,30.40
2019-01-23T19:30:09.176Z,33.43
2019-01-23T19:32:36.637Z,39.23
2019-01-23T19:35:15.037Z,32.80
2019-01-23T19:37:52.409Z,30.40
2019-01-23T19:40:24.083Z,37.60
2019-01-23T19:42:56.894Z,32.33
2019-01-23T19:45:28.674Z,29.23
2019-01-23T19:47:59.419Z,30.90
2019-01-23T19:50:32.183Z,31.20
2019-01-23T19:53:03.208Z,32.57
2019-01-23T19:55:34.046Z,31.83
2019-01-23T19:58:06.411Z,28.93
2019-01-23T20:00:39.815Z,27.97
2019-01-23T20:03:10.412Z,33.07
2019-01-23T20:05:40.968Z,30.53
2019-01-23T20:08:11.719Z,30.83
2019-01-23T20:10:42.539Z,29.30
2019-01-23T20:13:15.166Z,30.93
2019-01-23T20:15:47.737Z,30.43
2019-01-23T20:18:18.330Z,28.30
2019-01-23T20:20:48.839Z,29.50
2019-01-23T20:23:19.590Z,30.70
2019-01-23T20:25:53.056Z,29.23
2019-01-23T20:28:26.567Z,33.80
2019-01-23T20:30:58.060Z,29.10
2019-01-23T20:33:28.544Z,29.03
2019-01-23T20:36:02.019Z,30.70
2019-01-23T20:38:32.417Z,28.57
2019-01-23T20:41:02.826Z,29.20
2019-01-23T20:43:33.230Z,29.37
2019-01-23T20:46:37.737Z,24.30
2019-01-23T20:49:25.046Z,28.33
2019-01-23T20:51:46.759Z,28.33
2019-01-23T20:54:18.767Z,29.23
2019-01-23T20:57:01.443Z,31.53
2019-01-23T20:59:38.529Z,27.90
2019-01-23T21:02:09.859Z,28.80
2019-01-23T21:04:43.705Z,30.50
2019-01-23T21:07:14.626Z,26.50
2019-01-23T21:09:47.340Z,26.30
2019-01-23T21:12:21.006Z,26.63
2019-01-23T21:14:53.489Z,26.93
2019-01-23T21:17:25.688Z,28.20
2019-01-23T21:19:59.318Z,26.60
2019-01-23T21:22:34.631Z,29.30
2019-01-23T21:25:10.037Z,28.93
2019-01-23T21:27:42.333Z,27.20
2019-01-23T21:30:21.975Z,27.27
2019-01-23T21:36:21.489Z,27.97
2019-01-23T21:39:43.768Z,27.60
2019-01-23T21:42:19.521Z,26.00
2019-01-23T21:45:31.831Z,25.90
2019-01-23T21:48:06.416Z,26.33
2019-01-23T21:50:37.305Z,27.63
2019-01-23T21:53:19.712Z,26.93
2019-01-23T21:56:02.265Z,26.43
2019-01-23T21:59:20.097Z,29.43
2019-01-23T22:02:05.484Z,28.63
2019-01-23T22:05:02.737Z,26.47
2019-01-23T22:08:35.215Z,27.90
2019-01-23T22:14:27.515Z,26.40
2019-01-23T22:17:20.605Z,26.97
2019-01-23T22:19:56.302Z,26.60
2019-01-23T22:22:27.244Z,28.97
2019-01-23T22:25:07.941Z,28.53
2019-01-23T22:27:41.118Z,29.40
2019-01-23T22:30:28.358Z,28.63
2019-01-23T22:33:00.384Z,29.87
2019-01-23T22:35:31.227Z,29.27
2019-01-23T22:38:09.346Z,28.87
2019-01-23T22:40:41.001Z,30.63
2019-01-23T22:43:15.148Z,29.50
2019-01-23T22:45:45.051Z,29.67
2019-01-23T22:48:17.379Z,30.63
2019-01-23T22:50:51.070Z,30.83
2019-01-23T22:53:21.592Z,30.37
2019-01-23T22:55:59.649Z,31.03
2019-01-23T22:58:32.716Z,28.37
2019-01-23T23:01:33.679Z,30.50
2019-01-23T23:04:10.867Z,29.37
2019-01-23T23:06:36.604Z,29.10
2019-01-23T23:09:10.846Z,29.30
2019-01-23T23:11:41.361Z,29.00
2019-01-23T23:14:11.736Z,29.73
2019-01-23T23:16:42.287Z,29.57
2019-01-23T23:19:12.998Z,31.37
2019-01-23T23:21:43.360Z,30.53
2019-01-23T23:24:13.793Z,29.37
2019-01-23T23:26:44.689Z,29.03
2019-01-23T23:29:15.183Z,32.07
2019-01-23T23:31:45.561Z,30.40
2019-01-23T23:34:17.774Z,31.53
2019-01-23T23:36:48.203Z,30.40
2019-01-23T23:39:19.800Z,31.07
2019-01-23T23:41:51.854Z,30.73
2019-01-23T23:44:22.366Z,29.30
2019-01-23T23:46:52.788Z,28.03
2019-01-23T23:49:23.244Z,28.33
2019-01-23T23:51:53.850Z,28.10
2019-01-23T23:54:26.064Z,28.77
2019-01-23T23:56:56.545Z,28.77
2019-01-23T23:59:26.977Z,29.47
